Time;durP1;ratioP1;P1;durP2;ratioP2;P2;SDS_P1;SDS_P2;PMS_P1;PMS_P2;Temp;Humidity;BMP_temperature;BMP_pressure;BME280_temperature;BME280_humidity;BME280_pressure;Samples;Min_cycle;Max_cycle;Signal;HPM_P1;HPM_P2
2023/04/29 00:00:07;;;;;;;29.17;19.40;;;;;;;20.17;49.14;101609.50;5013436;28;20053;-35
2023/04/29 00:02:34;;;;;;;27.73;18.92;;;;;;;20.16;48.87;101606.97;5010593;28;20187;-35
2023/04/29 00:05:03;;;;;;;26.13;17.80;;;;;;;20.15;49.05;101613.38;4971540;28;20540;-36
2023/04/29 00:07:31;;;;;;;26.73;16.98;;;;;;;20.13;48.90;101616.19;5012364;28;20053;-35
2023/04/29 00:09:58;;;;;;;29.60;18.48;;;;;;;20.12;49.26;101622.56;5016624;28;20060;-37
2023/04/29 00:12:25;;;;;;;27.15;18.05;;;;;;;20.11;48.81;101615.50;5015838;28;20552;-37
2023/04/29 00:14:51;;;;;;;27.55;18.20;;;;;;;20.10;49.12;101615.63;5009970;28;20475;-36
2023/04/29 00:17:18;;;;;;;28.75;19.10;;;;;;;20.10;48.59;101623.72;5009195;28;20053;-35
2023/04/29 00:19:45;;;;;;;27.05;18.02;;;;;;;20.09;48.42;101622.03;5009814;28;20083;-38
2023/04/29 00:22:11;;;;;;;28.27;18.38;;;;;;;20.07;49.30;101619.50;5012914;28;20050;-35
2023/04/29 00:24:38;;;;;;;28.45;18.85;;;;;;;20.07;48.36;101622.19;4978241;28;20056;-40
2023/04/29 00:27:05;;;;;;;26.77;18.33;;;;;;;20.05;48.41;101626.84;5025709;28;20136;-35
2023/04/29 00:29:32;;;;;;;27.33;17.73;;;;;;;20.04;48.45;101630.53;5013816;28;20060;-35
2023/04/29 00:31:58;;;;;;;24.48;16.60;;;;;;;20.04;48.62;101641.31;5019139;28;20650;-35
2023/04/29 00:34:25;;;;;;;25.98;17.27;;;;;;;20.03;48.28;101634.25;5021367;28;20618;-35
2023/04/29 00:36:52;;;;;;;25.77;17.42;;;;;;;20.02;48.61;101637.94;5037586;28;20381;-36
2023/04/29 00:39:18;;;;;;;25.98;16.33;;;;;;;20.01;48.57;101638.91;5018905;28;20056;-35
2023/04/29 00:41:45;;;;;;;23.50;16.35;;;;;;;20.01;48.83;101644.28;5021324;28;20054;-35
2023/04/29 00:44:11;;;;;;;23.75;15.50;;;;;;;20.00;48.41;101647.97;4990827;28;20057;-35
2023/04/29 00:46:38;;;;;;;26.65;17.05;;;;;;;19.99;48.88;101648.13;5025712;28;20060;-37
2023/04/29 00:49:05;;;;;;;26.70;16.55;;;;;;;19.99;48.34;101651.69;5020483;28;20432;-35
2023/04/29 00:51:33;;;;;;;24.80;16.08;;;;;;;19.98;48.82;101655.38;5018831;28;20383;-36
2023/04/29 00:53:59;;;;;;;23.70;15.80;;;;;;;19.97;48.42;101654.50;5019520;28;20057;-35
2023/04/29 00:56:29;;;;;;;24.95;16.42;;;;;;;19.96;49.00;101658.19;5018723;28;20124;-35
2023/04/29 00:58:57;;;;;;;23.45;15.45;;;;;;;19.96;48.30;101649.28;5011481;28;20437;-35
2023/04/29 01:01:23;;;;;;;23.85;15.68;;;;;;;19.95;48.33;101663.72;5010248;28;20050;-35
2023/04/29 01:03:50;;;;;;;22.98;15.15;;;;;;;19.94;48.27;101653.97;5012022;28;20053;-36
2023/04/29 01:06:17;;;;;;;24.98;15.32;;;;;;;19.93;48.71;101658.47;4967509;28;20068;-35
2023/04/29 01:08:59;;;;;;;21.70;14.55;;;;;;;19.93;48.41;101663.00;5021570;28;20049;-35
2023/04/29 01:11:33;;;;;;;22.05;14.35;;;;;;;19.92;48.74;101666.69;5009742;28;20372;-35
2023/04/29 01:14:04;;;;;;;21.45;13.93;;;;;;;19.90;48.56;101661.47;5008136;28;20052;-35
2023/04/29 01:16:48;;;;;;;21.45;14.68;;;;;;;19.89;48.36;101673.22;5009606;28;20045;-35
2023/04/29 01:19:19;;;;;;;20.23;13.82;;;;;;;19.89;48.18;101673.22;5010118;28;20364;-34
2023/04/29 01:21:50;;;;;;;21.92;14.80;;;;;;;19.90;48.42;101671.38;5010701;28;20358;-35
2023/04/29 01:24:16;;;;;;;22.77;13.73;;;;;;;19.88;48.39;101676.91;4979409;28;20041;-36
2023/04/29 01:26:53;;;;;;;20.27;13.80;;;;;;;19.87;48.02;101674.38;5020901;28;20060;-35
2023/04/29 01:29:43;;;;;;;20.30;13.45;;;;;;;19.86;48.18;101670.84;5009828;28;20341;-35
2023/04/29 01:32:22;;;;;;;20.98;13.40;;;;;;;19.86;48.32;101686.97;5009665;28;20079;-35
2023/04/29 01:35:03;;;;;;;19.20;12.20;;;;;;;19.84;47.92;101680.88;5010014;28;20404;-35
2023/04/29 01:37:46;;;;;;;18.48;12.25;;;;;;;19.82;48.51;101677.50;5006845;28;20053;-35
2023/04/29 01:40:21;;;;;;;18.70;12.68;;;;;;;19.82;47.78;101682.00;5011348;28;20455;-35
2023/04/29 01:43:00;;;;;;;19.08;12.07;;;;;;;19.81;48.47;101686.53;5009864;28;20318;-37
2023/04/29 01:45:27;;;;;;;18.55;11.48;;;;;;;19.82;48.35;101690.06;5010830;28;20272;-35
2023/04/29 01:47:57;;;;;;;18.33;12.18;;;;;;;19.79;48.57;101693.94;5010989;28;20053;-35
2023/04/29 01:50:24;;;;;;;17.73;11.55;;;;;;;19.79;48.07;101693.09;5009464;28;20052;-34
2023/04/29 01:52:50;;;;;;;15.32;10.82;;;;;;;19.77;47.98;101695.06;5011667;28;20045;-34
2023/04/29 01:55:17;;;;;;;17.25;11.10;;;;;;;19.76;48.14;101691.50;5008954;28;20453;-37
2023/04/29 01:57:44;;;;;;;16.30;10.98;;;;;;;19.75;47.98;101686.28;5007782;28;20437;-35
2023/04/29 02:00:11;;;;;;;16.30;10.93;;;;;;;19.72;48.44;101695.50;5009762;28;20046;-37
2023/04/29 02:02:37;;;;;;;17.05;11.90;;;;;;;19.72;48.53;101698.19;5011464;28;20053;-34
2023/04/29 02:05:04;;;;;;;15.65;9.90;;;;;;;19.71;48.50;101700.03;4970030;28;20065;-35
2023/04/29 02:07:31;;;;;;;14.52;9.90;;;;;;;19.71;48.73;101696.50;5009253;28;20057;-35
2023/04/29 02:09:57;;;;;;;14.02;10.13;;;;;;;19.70;48.20;101698.34;5010549;28;20046;-35
2023/04/29 02:12:24;;;;;;;15.00;9.90;;;;;;;19.68;47.81;101697.63;5011306;28;20103;-35
2023/04/29 02:14:52;;;;;;;15.13;9.98;;;;;;;19.68;48.24;101704.84;5013298;28;20234;-34
2023/04/29 02:17:18;;;;;;;15.00;9.75;;;;;;;19.66;48.43;101699.63;5007613;28;20200;-34
2023/04/29 02:19:45;;;;;;;13.55;9.23;;;;;;;19.65;47.94;101702.44;5009287;28;21519;-34
2023/04/29 02:22:11;;;;;;;14.55;9.60;;;;;;;19.65;48.19;101715.88;5011480;28;20172;-35
2023/04/29 02:24:38;;;;;;;13.93;9.38;;;;;;;19.64;48.09;101717.72;4974327;28;20046;-39
2023/04/29 02:27:05;;;;;;;12.60;8.35;;;;;;;19.63;47.94;101721.41;5019130;28;20054;-36
2023/04/29 02:29:32;;;;;;;12.73;8.70;;;;;;;19.63;48.05;101720.56;4992024;28;20321;-34
2023/04/29 02:31:58;;;;;;;12.48;8.60;;;;;;;19.62;48.03;101724.25;4992720;28;20056;-35
2023/04/29 02:34:25;;;;;;;12.07;8.60;;;;;;;19.61;48.51;101728.75;4995157;28;20049;-34
2023/04/29 02:36:52;;;;;;;13.77;8.63;;;;;;;19.60;48.39;101731.56;4998660;28;20350;-36
2023/04/29 02:39:19;;;;;;;10.75;7.43;;;;;;;19.59;47.98;101732.56;4993891;28;20494;-34
2023/04/29 02:41:46;;;;;;;11.57;7.97;;;;;;;19.57;48.34;101738.06;4996154;28;20042;-34
2023/04/29 02:44:12;;;;;;;12.32;7.85;;;;;;;19.56;48.23;101743.59;4998011;28;20531;-34
2023/04/29 02:46:44;;;;;;;11.23;7.93;;;;;;;19.56;48.08;101740.91;4972057;28;20069;-34
2023/04/29 02:49:12;;;;;;;12.57;8.57;;;;;;;19.55;48.07;101750.81;5017411;28;20057;-35
2023/04/29 02:51:40;;;;;;;11.55;7.80;;;;;;;19.55;48.41;101756.19;5015242;28;20178;-35
2023/04/29 02:54:06;;;;;;;10.95;7.30;;;;;;;19.53;48.60;101750.09;5015380;28;20053;-35
2023/04/29 02:56:33;;;;;;;10.35;6.82;;;;;;;19.53;48.02;101757.31;5019315;28;20064;-35
2023/04/29 02:59:00;;;;;;;10.85;7.63;;;;;;;19.52;48.17;101756.47;5016483;28;20049;-34
2023/04/29 03:01:26;;;;;;;11.95;7.95;;;;;;;19.50;48.37;101755.78;5012774;28;20045;-39
2023/04/29 03:03:53;;;;;;;11.48;7.80;;;;;;;19.51;48.35;101770.06;5016760;28;20341;-34
2023/04/29 03:06:20;;;;;;;11.68;7.40;;;;;;;19.49;48.54;101768.34;4992902;28;20064;-36
2023/04/29 03:08:47;;;;;;;9.70;6.80;;;;;;;19.49;48.38;101767.50;5015952;28;20053;-35
2023/04/29 03:11:13;;;;;;;9.68;6.85;;;;;;;19.47;48.59;101772.19;5016048;28;20600;-34
2023/04/29 03:13:40;;;;;;;10.02;6.65;;;;;;;19.47;48.64;101775.72;5014049;28;20045;-35
2023/04/29 03:16:07;;;;;;;9.25;6.80;;;;;;;19.47;47.60;101780.25;5017915;28;20049;-34
2023/04/29 03:18:33;;;;;;;10.18;6.75;;;;;;;19.46;47.95;101778.56;5011896;28;20053;-34
2023/04/29 03:21:03;;;;;;;10.02;6.85;;;;;;;19.44;48.37;101773.31;5012979;28;20361;-36
2023/04/29 03:23:29;;;;;;;9.32;6.18;;;;;;;19.44;48.04;101775.16;5010280;28;20495;-35
2023/04/29 03:25:56;;;;;;;9.23;6.03;;;;;;;19.44;48.56;101776.00;4985751;28;20061;-35
2023/04/29 03:28:23;;;;;;;8.57;6.30;;;;;;;19.44;48.06;101783.22;5017277;28;20053;-35
2023/04/29 03:30:49;;;;;;;10.02;6.50;;;;;;;19.43;48.26;101778.84;5013776;28;20059;-35
2023/04/29 03:33:16;;;;;;;8.07;5.85;;;;;;;19.42;48.03;101779.84;5011336;28;20172;-38
2023/04/29 03:35:43;;;;;;;9.43;5.97;;;;;;;19.42;47.91;101777.16;5012337;28;20057;-35
2023/04/29 03:38:10;;;;;;;8.57;6.07;;;;;;;19.40;48.42;101774.56;5009753;28;20049;-34
2023/04/29 03:40:37;;;;;;;8.27;5.63;;;;;;;19.40;47.93;101773.72;5013254;28;20140;-36
2023/04/29 03:43:03;;;;;;;8.20;5.70;;;;;;;19.40;48.53;101779.09;5010243;28;20156;-37
2023/04/29 03:45:30;;;;;;;9.05;5.97;;;;;;;19.38;47.92;101781.94;4982592;28;20061;-34
2023/04/29 03:47:56;;;;;;;8.75;5.70;;;;;;;19.38;48.21;101781.94;5018466;28;20449;-35
2023/04/29 03:50:24;;;;;;;7.80;5.38;;;;;;;19.38;48.35;101791.84;5008203;28;20050;-34
2023/04/29 03:52:51;;;;;;;8.93;5.22;;;;;;;19.37;48.19;101787.44;5012407;28;20057;-35
2023/04/29 03:55:17;;;;;;;7.13;5.07;;;;;;;19.37;48.09;101785.59;5011014;28;20250;-34
2023/04/29 03:57:44;;;;;;;8.10;5.95;;;;;;;19.36;48.58;101794.66;5009912;28;20057;-35
2023/04/29 04:00:11;;;;;;;7.38;5.30;;;;;;;19.36;48.05;101796.50;5007914;28;20442;-35
2023/04/29 04:02:37;;;;;;;6.97;4.97;;;;;;;19.35;48.58;101798.34;5010198;28;20076;-35
2023/04/29 04:05:04;;;;;;;6.57;4.57;;;;;;;19.35;47.95;101801.03;4977705;28;20063;-35
2023/04/29 04:07:31;;;;;;;7.53;5.10;;;;;;;19.34;48.36;101803.88;5018691;28;20445;-35
2023/04/29 04:09:58;;;;;;;7.18;5.45;;;;;;;19.33;47.98;101797.63;5010393;28;20590;-35
2023/04/29 04:12:24;;;;;;;7.72;5.03;;;;;;;19.33;48.12;101805.69;5014461;28;20732;-35
2023/04/29 04:14:51;;;;;;;6.68;4.65;;;;;;;19.32;48.26;101809.38;5009009;28;20054;-35
2023/04/29 04:17:18;;;;;;;8.60;5.63;;;;;;;19.31;47.85;101809.53;5010069;28;20579;-35
2023/04/29 04:19:45;;;;;;;7.07;5.05;;;;;;;19.32;48.37;101819.28;5006061;28;20071;-35
2023/04/29 04:22:12;;;;;;;7.72;5.15;;;;;;;19.31;48.55;101818.44;5013027;28;20478;-35
2023/04/29 04:24:38;;;;;;;7.28;5.15;;;;;;;19.31;48.50;101821.13;4976205;28;20097;-38
2023/04/29 04:27:05;;;;;;;6.22;4.72;;;;;;;19.29;47.96;101815.00;5009015;28;20088;-37
2023/04/29 04:29:32;;;;;;;6.95;5.05;;;;;;;19.30;47.77;101823.97;5014700;28;20344;-35
2023/04/29 04:31:59;;;;;;;6.90;4.90;;;;;;;19.28;47.87;101824.06;5014133;28;20120;-35
2023/04/29 04:34:26;;;;;;;6.78;4.95;;;;;;;19.28;48.44;101826.75;5012679;28;20057;-34
2023/04/29 04:36:52;;;;;;;5.70;4.40;;;;;;;19.28;48.56;101829.44;5014284;28;20059;-34
2023/04/29 04:39:19;;;;;;;7.88;5.18;;;;;;;19.28;48.57;101834.84;5016556;28;20045;-34
2023/04/29 04:41:45;;;;;;;6.90;4.28;;;;;;;19.27;48.30;101837.66;5017507;28;20435;-34
2023/04/29 04:44:13;;;;;;;5.47;4.30;;;;;;;19.27;48.05;101853.78;4985055;28;20073;-35
2023/04/29 04:46:39;;;;;;;7.07;4.40;;;;;;;19.27;48.24;101851.09;5028240;28;20127;-34
2023/04/29 04:49:06;;;;;;;8.35;4.45;;;;;;;19.25;47.66;101851.22;5019860;28;20064;-35
2023/04/29 04:51:33;;;;;;;5.95;3.85;;;;;;;19.24;47.71;101858.44;5017337;28;20068;-35
2023/04/29 04:53:59;;;;;;;4.95;3.90;;;;;;;19.24;48.28;101865.66;5016779;28;20068;-35
2023/04/29 04:56:26;;;;;;;7.18;4.25;;;;;;;19.23;48.23;101870.19;5017478;28;20055;-34
2023/04/29 04:58:52;;;;;;;6.22;4.40;;;;;;;19.24;47.99;101871.88;5018517;28;20064;-34
2023/04/29 05:01:19;;;;;;;5.28;3.60;;;;;;;19.23;47.96;101866.66;5019045;28;20064;-34
2023/04/29 05:03:46;;;;;;;5.57;3.92;;;;;;;19.22;48.01;101863.13;4989606;28;20465;-34
2023/04/29 05:06:13;;;;;;;5.38;3.67;;;;;;;19.22;47.92;101864.97;5031351;28;20053;-34
2023/04/29 05:08:40;;;;;;;6.63;3.85;;;;;;;19.21;48.29;101882.91;5016101;28;20045;-34
2023/04/29 05:11:15;;;;;;;5.07;3.65;;;;;;;19.20;48.21;101880.34;5013849;28;20081;-37
2023/04/29 05:13:41;;;;;;;5.22;3.67;;;;;;;19.20;48.42;101883.88;5010797;28;20049;-35
2023/04/29 05:16:08;;;;;;;5.72;3.60;;;;;;;19.20;48.26;101880.34;5009879;28;20068;-35
2023/04/29 05:18:34;;;;;;;5.03;3.80;;;;;;;19.19;47.99;101884.88;5010905;28;20041;-34
2023/04/29 05:21:01;;;;;;;5.15;3.55;;;;;;;19.19;47.80;101892.94;5008940;28;20594;-35
2023/04/29 05:23:28;;;;;;;5.53;3.78;;;;;;;19.19;48.42;101889.41;5009484;28;20053;-34
2023/04/29 05:25:54;;;;;;;6.25;3.80;;;;;;;19.18;48.61;101888.56;4978167;28;20064;-36
2023/04/29 05:28:21;;;;;;;5.65;3.35;;;;;;;19.17;47.93;101894.06;5007334;28;20053;-36
2023/04/29 05:30:50;;;;;;;5.90;3.70;;;;;;;19.18;48.42;101893.94;4992347;28;20061;-36
2023/04/29 05:33:17;;;;;;;6.88;3.70;;;;;;;19.17;47.92;101886.84;4988500;28;20065;-35
2023/04/29 05:35:43;;;;;;;5.45;3.35;;;;;;;19.17;47.90;101892.22;4987768;28;20050;-35
2023/04/29 05:38:10;;;;;;;4.93;3.40;;;;;;;19.16;48.23;101901.28;4990484;28;20060;-36
2023/04/29 05:40:37;;;;;;;5.13;3.35;;;;;;;19.17;48.27;101907.50;4987245;28;20061;-37
2023/04/29 05:43:03;;;;;;;4.93;3.20;;;;;;;19.16;48.06;101905.81;4990675;28;20464;-35
2023/04/29 05:45:30;;;;;;;4.95;3.30;;;;;;;19.17;47.87;101918.25;4958347;28;20064;-35
2023/04/29 05:47:56;;;;;;;5.10;3.13;;;;;;;19.17;48.65;101918.25;5012103;28;20087;-35
2023/04/29 05:50:23;;;;;;;5.25;3.45;;;;;;;19.17;48.10;101929.00;5009957;28;20045;-35
2023/04/29 05:52:50;;;;;;;3.90;2.85;;;;;;;19.17;48.59;101923.63;5009858;28;20341;-36
2023/04/29 05:55:17;;;;;;;4.57;3.25;;;;;;;19.17;47.82;101924.47;5011430;28;20052;-37
2023/04/29 05:57:43;;;;;;;3.95;2.92;;;;;;;19.19;48.77;101921.66;5009014;28;20056;-36
2023/04/29 06:00:10;;;;;;;5.10;3.30;;;;;;;19.19;48.26;101929.72;5009972;28;20595;-35
2023/04/29 06:02:38;;;;;;;3.70;3.05;;;;;;;19.20;48.38;101942.16;5009834;28;20045;-34
2023/04/29 06:05:23;;;;;;;5.05;3.33;;;;;;;19.21;48.18;101949.25;4970893;28;20072;-34
2023/04/29 06:07:50;;;;;;;4.55;3.10;;;;;;;19.22;48.11;101948.28;5008068;28;20468;-35
2023/04/29 06:10:17;;;;;;;3.88;3.22;;;;;;;19.22;47.81;101943.75;5010509;28;20468;-35
2023/04/29 06:12:45;;;;;;;5.38;3.00;;;;;;;19.22;47.95;101957.19;5010345;28;20472;-35
2023/04/29 06:15:12;;;;;;;5.03;3.08;;;;;;;19.23;47.55;101955.34;5010973;28;20045;-35
2023/04/29 06:17:39;;;;;;;3.85;2.88;;;;;;;19.24;47.99;101957.03;5010653;28;20478;-37
2023/04/29 06:20:06;;;;;;;3.75;2.88;;;;;;;19.24;47.76;101959.72;5007534;28;20053;-35
2023/04/29 06:22:32;;;;;;;3.72;2.80;;;;;;;19.24;48.49;101965.09;5009790;28;20623;-34
2023/04/29 06:24:59;;;;;;;3.53;2.78;;;;;;;19.25;48.21;101972.19;4977954;28;20449;-39
2023/04/29 06:27:27;;;;;;;2.85;2.50;;;;;;;19.24;48.05;101974.03;5016826;28;20378;-34
2023/04/29 06:29:53;;;;;;;3.65;2.70;;;;;;;19.25;48.23;101980.25;5011939;28;20053;-34
2023/04/29 06:32:20;;;;;;;4.03;3.00;;;;;;;19.28;48.09;101984.50;5008605;28;20484;-36
2023/04/29 06:34:47;;;;;;;4.45;3.08;;;;;;;19.28;48.38;101993.41;5013021;28;20050;-34
2023/04/29 06:37:13;;;;;;;3.53;2.55;;;;;;;19.30;48.37;101996.84;5011517;28;20046;-34
2023/04/29 06:39:40;;;;;;;4.13;2.85;;;;;;;19.32;47.67;101992.16;5012790;28;20050;-35
2023/04/29 06:42:06;;;;;;;4.28;3.08;;;;;;;19.33;47.56;101991.19;5013020;28;20451;-35
2023/04/29 06:44:33;;;;;;;3.65;2.60;;;;;;;19.35;48.00;101999.13;5010298;28;21437;-35
2023/04/29 06:46:59;;;;;;;3.47;2.53;;;;;;;19.37;47.45;101989.06;4982600;28;20073;-34
2023/04/29 06:49:26;;;;;;;3.42;2.45;;;;;;;19.38;48.08;102001.56;5009751;28;20141;-35
2023/04/29 06:51:53;;;;;;;3.67;2.22;;;;;;;19.39;47.55;102005.94;5009498;28;20525;-35
2023/04/29 06:54:20;;;;;;;4.40;3.10;;;;;;;19.39;47.96;102006.78;5005529;28;20495;-36
2023/04/29 06:56:47;;;;;;;3.60;2.55;;;;;;;19.40;47.95;102010.31;5010754;28;20388;-35
2023/04/29 06:59:14;;;;;;;4.03;2.70;;;;;;;19.40;47.79;102011.16;5011281;28;20050;-34
2023/04/29 07:01:40;;;;;;;4.25;2.60;;;;;;;19.40;48.06;102016.53;5012793;28;20349;-34
2023/04/29 07:04:10;;;;;;;4.22;2.55;;;;;;;19.40;48.31;102026.44;5008207;28;20072;-35
2023/04/29 07:06:37;;;;;;;3.47;2.50;;;;;;;19.42;47.49;102033.41;4990393;28;20052;-36
2023/04/29 07:09:04;;;;;;;2.65;2.30;;;;;;;19.43;48.18;102029.72;5013349;28;20049;-35
2023/04/29 07:11:31;;;;;;;4.18;2.42;;;;;;;19.45;48.13;102038.50;4993191;28;20052;-35
2023/04/29 07:13:57;;;;;;;3.75;2.60;;;;;;;19.46;47.42;102042.06;5007674;28;20991;-35
2023/04/29 07:16:25;;;;;;;3.95;2.75;;;;;;;19.47;47.83;102046.44;5008571;28;20437;-36
2023/04/29 07:18:52;;;;;;;5.45;2.90;;;;;;;19.49;47.82;102052.53;5009962;28;20053;-35
2023/04/29 07:21:18;;;;;;;2.83;2.40;;;;;;;19.50;47.67;102048.88;5017096;28;21088;-35
2023/04/29 07:23:45;;;;;;;4.38;2.42;;;;;;;19.52;48.00;102052.28;5014394;28;20085;-36
2023/04/29 07:26:14;;;;;;;3.97;2.60;;;;;;;19.53;47.87;102053.13;4971487;28;20087;-35
2023/04/29 07:28:41;;;;;;;2.92;2.50;;;;;;;19.53;47.76;102051.28;5014016;28;20049;-35
2023/04/29 07:31:08;;;;;;;5.80;2.45;;;;;;;19.54;47.44;102054.81;5010753;28;20056;-35
2023/04/29 07:33:35;;;;;;;4.38;3.30;;;;;;;19.51;48.36;102058.63;5008082;28;20064;-34
2023/04/29 07:36:02;;;;;;;7.15;3.13;;;;;;;19.48;48.63;102061.59;5013729;28;20042;-34
2023/04/29 07:38:29;;;;;;;5.35;2.92;;;;;;;19.47;48.07;102062.59;5012630;28;20053;-34
2023/04/29 07:40:56;;;;;;;6.07;3.50;;;;;;;19.47;48.54;102063.44;5011791;28;20508;-34
2023/04/29 07:43:23;;;;;;;4.30;2.83;;;;;;;19.48;48.31;102059.75;5011884;28;20045;-34
2023/04/29 07:45:49;;;;;;;4.75;2.63;;;;;;;19.51;48.26;102082.00;4986495;28;20356;-34
2023/04/29 07:48:16;;;;;;;4.63;2.70;;;;;;;19.52;48.27;102073.78;5022012;28;20056;-33
2023/04/29 07:50:43;;;;;;;4.53;2.67;;;;;;;19.54;48.11;102077.22;5012876;28;20423;-34
2023/04/29 07:53:09;;;;;;;4.82;2.97;;;;;;;19.55;48.12;102078.91;5016997;28;20084;-35
2023/04/29 07:55:37;;;;;;;5.57;3.40;;;;;;;19.58;48.24;102084.03;5013127;28;20271;-35
2023/04/29 07:58:03;;;;;;;4.80;3.08;;;;;;;19.60;47.81;102084.72;5010684;28;20586;-34
2023/04/29 08:00:30;;;;;;;4.90;3.28;;;;;;;19.61;48.25;102089.13;5011078;28;20053;-34
2023/04/29 08:02:57;;;;;;;5.78;3.17;;;;;;;19.63;47.76;102087.19;5008647;28;20407;-34
2023/04/29 08:05:25;;;;;;;4.50;3.22;;;;;;;19.65;48.06;102093.25;4974835;28;20408;-34
2023/04/29 08:07:52;;;;;;;7.35;3.22;;;;;;;19.68;48.18;102097.53;5025942;28;20524;-34
2023/04/29 08:10:21;;;;;;;11.63;4.82;;;;;;;19.67;49.59;102094.00;5012854;28;20131;-34
2023/04/29 08:12:48;;;;;;;12.90;5.65;;;;;;;19.67;50.96;102096.69;5014153;28;20274;-34
2023/04/29 08:15:17;;;;;;;17.77;8.50;;;;;;;19.65;53.18;102095.94;5010643;28;20136;-35
2023/04/29 08:17:43;;;;;;;18.48;8.32;;;;;;;19.63;53.90;102102.47;5010640;28;20331;-34
2023/04/29 08:20:10;;;;;;;24.75;9.50;;;;;;;19.61;54.04;102109.78;5015087;28;20061;-35
2023/04/29 08:22:37;;;;;;;21.95;9.48;;;;;;;19.59;54.54;102101.00;5013533;28;20061;-35
2023/04/29 08:25:04;;;;;;;19.73;9.45;;;;;;;19.56;54.33;102102.09;5004669;28;20050;-34
2023/04/29 08:27:31;;;;;;;23.75;12.25;;;;;;;19.56;54.50;102095.88;4984534;28;20147;-34
2023/04/29 08:29:57;;;;;;;29.05;13.70;;;;;;;19.55;55.09;102096.88;5016610;28;20266;-35
2023/04/29 08:32:24;;;;;;;20.75;11.90;;;;;;;19.51;54.57;102104.34;5012324;28;20103;-34
2023/04/29 08:34:51;;;;;;;23.27;12.95;;;;;;;19.50;54.93;102102.66;5020353;28;20079;-35
2023/04/29 08:37:19;;;;;;;23.20;13.02;;;;;;;19.49;54.34;102112.53;5021669;28;20127;-36
2023/04/29 08:39:46;;;;;;;25.38;14.63;;;;;;;19.47;54.08;102110.97;5021871;28;20057;-35
2023/04/29 08:42:13;;;;;;;26.50;13.90;;;;;;;19.45;54.79;102108.41;5020992;28;20053;-35
2023/04/29 08:44:40;;;;;;;32.03;14.95;;;;;;;19.44;53.88;102109.41;4982194;28;20065;-34
2023/04/29 08:47:08;;;;;;;23.63;13.00;;;;;;;19.44;54.47;102116.63;5016526;28;20136;-35
2023/04/29 08:49:36;;;;;;;23.65;13.93;;;;;;;19.43;54.15;102123.00;5018116;28;20060;-34
2023/04/29 08:52:03;;;;;;;22.30;13.50;;;;;;;19.42;54.25;102119.44;5018981;28;20052;-35
2023/04/29 08:54:31;;;;;;;24.63;13.75;;;;;;;19.42;53.79;102124.81;5020515;28;20408;-34
2023/04/29 08:56:59;;;;;;;22.38;13.80;;;;;;;19.42;53.69;102132.03;5020791;28;20104;-35
2023/04/29 08:59:27;;;;;;;28.40;16.75;;;;;;;19.41;53.32;102123.09;5012093;28;20765;-35
2023/04/29 09:01:55;;;;;;;33.72;18.70;;;;;;;19.41;52.98;102135.69;5012007;28;20057;-34
2023/04/29 09:05:07;;;;;;;33.10;18.25;;;;;;;19.39;54.02;102138.53;5009701;28;20054;-35
2023/04/29 09:07:35;;;;;;;28.30;18.15;;;;;;;19.41;53.24;102139.22;5013606;28;20056;-35
2023/04/29 09:10:03;;;;;;;35.25;19.35;;;;;;;19.41;53.62;102135.69;5009525;28;20051;-35
2023/04/29 09:12:30;;;;;;;33.13;19.05;;;;;;;19.42;52.95;102138.28;5006892;28;20057;-36
2023/04/29 09:14:57;;;;;;;30.95;17.52;;;;;;;19.44;52.92;102147.03;5006584;28;20348;-35
2023/04/29 09:17:43;;;;;;;32.60;19.60;;;;;;;19.44;53.62;102140.81;5008922;28;20058;-35
2023/04/29 09:20:21;;;;;;;39.22;19.35;;;;;;;19.45;53.26;102142.50;5010463;28;20068;-35
2023/04/29 09:22:52;;;;;;;32.22;19.77;;;;;;;19.47;53.56;102145.94;5008674;28;20056;-34
2023/04/29 09:25:19;;;;;;;36.25;20.67;;;;;;;19.45;53.19;102148.75;4973904;28;20049;-36
2023/04/29 09:27:46;;;;;;;32.53;20.00;;;;;;;19.46;53.24;102149.63;5022438;28;20088;-35
2023/04/29 09:30:15;;;;;;;36.75;20.67;;;;;;;19.47;52.91;102149.47;4998885;28;20056;-36
2023/04/29 09:32:43;;;;;;;34.70;20.63;;;;;;;19.51;52.93;102146.53;4995460;28;20591;-35
2023/04/29 09:35:28;;;;;;;33.15;20.05;;;;;;;19.52;53.57;102149.09;5004944;28;20408;-35
2023/04/29 09:38:12;;;;;;;33.65;19.73;;;;;;;19.57;53.16;102148.69;5011665;28;20049;-35
2023/04/29 09:40:41;;;;;;;30.17;17.38;;;;;;;19.62;52.39;102163.50;5007903;28;20060;-35
2023/04/29 09:43:24;;;;;;;32.25;19.30;;;;;;;19.66;52.05;102159.56;5009966;28;20459;-34
2023/04/29 09:45:50;;;;;;;34.72;19.90;;;;;;;19.68;52.56;102162.09;4976196;28;20053;-34
2023/04/29 09:48:17;;;;;;;31.17;18.40;;;;;;;19.71;52.64;102169.91;5019638;28;20521;-37
2023/04/29 09:50:58;;;;;;;31.63;18.95;;;;;;;19.72;51.76;102161.69;5012416;28;20060;-36
2023/04/29 09:53:30;;;;;;;42.20;25.45;;;;;;;19.77;51.34;102163.13;5009577;28;20296;-36
2023/04/29 09:55:59;;;;;;;33.92;20.75;;;;;;;19.80;51.34;102160.19;4997031;28;20257;-34
2023/04/29 09:58:35;;;;;;;38.45;22.65;;;;;;;19.89;51.98;102164.75;5011426;28;20049;-36
2023/04/29 10:01:03;;;;;;;42.83;23.50;;;;;;;19.96;51.05;102166.78;5009229;28;20187;-35
2023/04/29 10:03:36;;;;;;;41.88;24.58;;;;;;;20.05;51.63;102161.56;5011439;28;20546;-35
2023/04/29 10:06:05;;;;;;;40.50;24.85;;;;;;;20.14;50.42;102161.63;5009613;28;20333;-34
2023/04/29 10:08:33;;;;;;;41.10;24.98;;;;;;;20.23;50.75;102164.50;5010266;28;20046;-34
2023/04/29 10:11:02;;;;;;;41.75;25.33;;;;;;;20.31;50.54;102165.53;5011919;28;20341;-35
2023/04/29 10:13:30;;;;;;;46.70;25.65;;;;;;;20.40;50.46;102166.53;5015243;28;20447;-35
2023/04/29 10:16:08;;;;;;;47.35;27.48;;;;;;;20.46;50.29;102169.53;5011007;28;20641;-35
2023/04/29 10:18:36;;;;;;;38.97;24.70;;;;;;;20.54;49.64;102170.69;5011370;28;20132;-34
2023/04/29 10:21:07;;;;;;;43.60;26.65;;;;;;;20.58;49.47;102170.31;5012473;28;20054;-34
2023/04/29 10:23:36;;;;;;;46.50;26.15;;;;;;;20.61;49.41;102175.41;5010566;28;20080;-34
2023/04/29 10:26:05;;;;;;;41.90;26.42;;;;;;;20.62;49.00;102170.88;4979443;28;20123;-34
2023/04/29 10:28:32;;;;;;;44.20;24.75;;;;;;;20.62;49.44;102171.75;5019039;28;20159;-34
2023/04/29 10:31:04;;;;;;;43.85;25.60;;;;;;;20.67;49.00;102171.31;5010171;28;20045;-34
2023/04/29 10:33:34;;;;;;;43.35;26.42;;;;;;;20.70;48.99;102177.28;5006616;28;20070;-35
2023/04/29 10:36:02;;;;;;;43.33;26.50;;;;;;;20.74;49.40;102185.91;5012324;28;20265;-36
2023/04/29 10:38:35;;;;;;;48.22;30.00;;;;;;;20.77;48.30;102174.88;5011881;28;20464;-35
2023/04/29 10:41:07;;;;;;;;;;;;;;;20.76;47.29;102175.03;5011261;28;20129;-35
2023/04/29 10:43:34;;;;;;;46.83;27.15;;;;;;;20.82;48.16;102163.66;5015631;28;19931;-35
2023/04/29 10:46:33;;;;;;;48.30;27.33;;;;;;;20.79;48.44;102169.38;4985227;28;20172;-35
2023/04/29 10:49:03;;;;;;;47.28;27.67;;;;;;;20.83;48.23;102168.09;4971104;28;20058;-35
2023/04/29 10:51:34;;;;;;;43.22;26.25;;;;;;;20.78;48.21;102171.19;4995096;28;20296;-35
2023/04/29 10:54:07;;;;;;;40.03;24.60;;;;;;;20.74;48.16;102177.84;5000418;28;20229;-34
2023/04/29 10:56:42;;;;;;;39.40;23.75;;;;;;;20.68;48.06;102178.41;4997688;28;20046;-35
2023/04/29 10:59:13;;;;;;;37.05;23.35;;;;;;;20.64;48.23;102185.06;4994805;28;20049;-34
2023/04/29 11:01:51;;;;;;;41.05;23.92;;;;;;;20.59;48.25;102173.84;4990184;28;20501;-35
2023/04/29 11:04:21;;;;;;;37.65;22.35;;;;;;;20.59;48.49;102171.16;4988936;28;20134;-35
2023/04/29 11:06:55;;;;;;;37.10;22.52;;;;;;;20.57;48.52;102165.91;4979094;28;20372;-34
2023/04/29 11:09:26;;;;;;;40.75;22.38;;;;;;;20.56;48.89;102179.50;5003645;28;20160;-35
2023/04/29 11:12:04;;;;;;;35.55;20.95;;;;;;;20.54;48.69;102181.47;4996731;28;20465;-34
2023/04/29 11:14:37;;;;;;;35.67;21.25;;;;;;;20.55;48.95;102185.91;4991697;28;20141;-34
2023/04/29 11:17:09;;;;;;;36.63;20.30;;;;;;;20.55;49.41;102180.50;4989453;28;20062;-34
2023/04/29 11:19:41;;;;;;;32.08;19.45;;;;;;;20.56;50.13;102192.97;4989976;28;20062;-34
2023/04/29 11:22:16;;;;;;;37.83;20.50;;;;;;;20.57;50.88;102187.44;4988889;28;20060;-35